sensor_id;sensor_type;location;lat;lon;timestamp;P1;durP1;ratioP1;P2;durP2;ratioP2
39448;SDS011;25151;45.566;9.382;2022-11-20T00:01:37;8.23;;;3.55;;
39448;SDS011;25151;45.566;9.382;2022-11-20T00:04:38;4.47;;;3.13;;
39448;SDS011;25151;45.566;9.382;2022-11-20T00:07:39;4.57;;;3.45;;
39448;SDS011;25151;45.566;9.382;2022-11-20T00:10:40;5.55;;;3.78;;
39448;SDS011;25151;45.566;9.382;2022-11-20T00:13:41;6.97;;;3.50;;
39448;SDS011;25151;45.566;9.382;2022-11-20T00:16:42;3.80;;;2.95;;
39448;SDS011;25151;45.566;9.382;2022-11-20T00:19:43;4.80;;;3.10;;
39448;SDS011;25151;45.566;9.382;2022-11-20T00:22:43;4.97;;;3.38;;
39448;SDS011;25151;45.566;9.382;2022-11-20T00:25:44;4.80;;;3.10;;
39448;SDS011;25151;45.566;9.382;2022-11-20T00:28:49;5.22;;;3.10;;
39448;SDS011;25151;45.566;9.382;2022-11-20T00:31:54;4.57;;;3.47;;
39448;SDS011;25151;45.566;9.382;2022-11-20T00:34:55;4.28;;;3.40;;
39448;SDS011;25151;45.566;9.382;2022-11-20T00:37:55;4.38;;;3.65;;
39448;SDS011;25151;45.566;9.382;2022-11-20T00:40:57;5.07;;;3.70;;
39448;SDS011;25151;45.566;9.382;2022-11-20T00:43:58;3.85;;;3.28;;
39448;SDS011;25151;45.566;9.382;2022-11-20T00:46:59;4.38;;;3.13;;
39448;SDS011;25151;45.566;9.382;2022-11-20T00:49:59;6.50;;;3.67;;
39448;SDS011;25151;45.566;9.382;2022-11-20T00:53:00;5.05;;;2.95;;
39448;SDS011;25151;45.566;9.382;2022-11-20T00:56:02;5.10;;;3.60;;
39448;SDS011;25151;45.566;9.382;2022-11-20T00:59:08;4.57;;;3.13;;
39448;SDS011;25151;45.566;9.382;2022-11-20T01:02:09;4.45;;;3.15;;
39448;SDS011;25151;45.566;9.382;2022-11-20T01:05:09;5.88;;;3.08;;
39448;SDS011;25151;45.566;9.382;2022-11-20T01:08:10;3.95;;;3.38;;
39448;SDS011;25151;45.566;9.382;2022-11-20T01:11:15;4.32;;;3.38;;
39448;SDS011;25151;45.566;9.382;2022-11-20T01:14:19;3.42;;;2.72;;
39448;SDS011;25151;45.566;9.382;2022-11-20T01:17:20;3.13;;;2.75;;
39448;SDS011;25151;45.566;9.382;2022-11-20T01:20:20;3.85;;;3.05;;
39448;SDS011;25151;45.566;9.382;2022-11-20T01:23:21;4.88;;;3.72;;
39448;SDS011;25151;45.566;9.382;2022-11-20T01:26:22;4.78;;;3.67;;
39448;SDS011;25151;45.566;9.382;2022-11-20T01:29:26;4.40;;;3.20;;
39448;SDS011;25151;45.566;9.382;2022-11-20T01:32:26;5.18;;;3.10;;
39448;SDS011;25151;45.566;9.382;2022-11-20T01:35:27;5.65;;;3.45;;
39448;SDS011;25151;45.566;9.382;2022-11-20T01:38:28;4.18;;;3.50;;
39448;SDS011;25151;45.566;9.382;2022-11-20T01:41:29;4.13;;;3.58;;
39448;SDS011;25151;45.566;9.382;2022-11-20T01:47:54;4.63;;;3.65;;
39448;SDS011;25151;45.566;9.382;2022-11-20T01:50:55;7.13;;;3.53;;
39448;SDS011;25151;45.566;9.382;2022-11-20T01:53:59;4.88;;;3.47;;
39448;SDS011;25151;45.566;9.382;2022-11-20T01:57:03;4.60;;;3.67;;
39448;SDS011;25151;45.566;9.382;2022-11-20T02:00:11;4.40;;;2.97;;
39448;SDS011;25151;45.566;9.382;2022-11-20T02:03:15;5.68;;;3.38;;
39448;SDS011;25151;45.566;9.382;2022-11-20T02:06:22;4.47;;;3.70;;
39448;SDS011;25151;45.566;9.382;2022-11-20T02:09:24;4.55;;;3.38;;
39448;SDS011;25151;45.566;9.382;2022-11-20T02:12:25;4.45;;;3.30;;
39448;SDS011;25151;45.566;9.382;2022-11-20T02:15:44;4.57;;;3.53;;
39448;SDS011;25151;45.566;9.382;2022-11-20T02:18:45;5.45;;;3.35;;
39448;SDS011;25151;45.566;9.382;2022-11-20T02:21:51;4.82;;;3.65;;
39448;SDS011;25151;45.566;9.382;2022-11-20T02:25:00;4.85;;;3.40;;
39448;SDS011;25151;45.566;9.382;2022-11-20T02:28:04;4.75;;;3.58;;
39448;SDS011;25151;45.566;9.382;2022-11-20T02:31:05;3.90;;;3.50;;
39448;SDS011;25151;45.566;9.382;2022-11-20T02:34:06;5.05;;;3.70;;
39448;SDS011;25151;45.566;9.382;2022-11-20T02:37:07;3.97;;;2.92;;
39448;SDS011;25151;45.566;9.382;2022-11-20T02:40:08;4.38;;;3.60;;
39448;SDS011;25151;45.566;9.382;2022-11-20T02:43:09;5.28;;;4.00;;
39448;SDS011;25151;45.566;9.382;2022-11-20T02:46:10;4.03;;;3.28;;
39448;SDS011;25151;45.566;9.382;2022-11-20T02:49:12;5.05;;;3.38;;
39448;SDS011;25151;45.566;9.382;2022-11-20T02:52:12;5.15;;;3.88;;
39448;SDS011;25151;45.566;9.382;2022-11-20T02:55:13;6.18;;;3.85;;
39448;SDS011;25151;45.566;9.382;2022-11-20T02:58:14;4.88;;;3.15;;
39448;SDS011;25151;45.566;9.382;2022-11-20T03:01:14;3.95;;;3.53;;
39448;SDS011;25151;45.566;9.382;2022-11-20T03:04:15;3.95;;;3.40;;
39448;SDS011;25151;45.566;9.382;2022-11-20T03:07:16;3.72;;;3.35;;
39448;SDS011;25151;45.566;9.382;2022-11-20T03:10:17;4.82;;;3.88;;
39448;SDS011;25151;45.566;9.382;2022-11-20T03:13:17;6.05;;;4.38;;
39448;SDS011;25151;45.566;9.382;2022-11-20T03:16:19;4.65;;;3.65;;
39448;SDS011;25151;45.566;9.382;2022-11-20T03:19:22;5.35;;;4.00;;
39448;SDS011;25151;45.566;9.382;2022-11-20T03:22:22;4.50;;;3.63;;
39448;SDS011;25151;45.566;9.382;2022-11-20T03:25:23;6.65;;;4.13;;
39448;SDS011;25151;45.566;9.382;2022-11-20T03:28:23;4.03;;;3.50;;
39448;SDS011;25151;45.566;9.382;2022-11-20T03:31:26;4.13;;;3.60;;
39448;SDS011;25151;45.566;9.382;2022-11-20T03:34:31;4.10;;;3.70;;
39448;SDS011;25151;45.566;9.382;2022-11-20T03:37:32;4.07;;;3.45;;
39448;SDS011;25151;45.566;9.382;2022-11-20T03:40:33;4.22;;;3.65;;
39448;SDS011;25151;45.566;9.382;2022-11-20T03:43:35;6.07;;;3.47;;
39448;SDS011;25151;45.566;9.382;2022-11-20T03:46:36;4.03;;;3.35;;
39448;SDS011;25151;45.566;9.382;2022-11-20T03:49:37;3.83;;;3.42;;
39448;SDS011;25151;45.566;9.382;2022-11-20T03:52:38;5.47;;;3.88;;
39448;SDS011;25151;45.566;9.382;2022-11-20T03:55:39;4.38;;;3.53;;
39448;SDS011;25151;45.566;9.382;2022-11-20T03:58:41;4.00;;;3.40;;
39448;SDS011;25151;45.566;9.382;2022-11-20T04:01:42;3.92;;;3.60;;
39448;SDS011;25151;45.566;9.382;2022-11-20T04:04:43;4.38;;;3.97;;
39448;SDS011;25151;45.566;9.382;2022-11-20T04:07:44;3.75;;;3.38;;
39448;SDS011;25151;45.566;9.382;2022-11-20T04:10:44;3.67;;;3.28;;
39448;SDS011;25151;45.566;9.382;2022-11-20T04:13:46;3.97;;;3.20;;
39448;SDS011;25151;45.566;9.382;2022-11-20T04:16:48;4.88;;;3.97;;
39448;SDS011;25151;45.566;9.382;2022-11-20T04:19:49;4.55;;;3.35;;
39448;SDS011;25151;45.566;9.382;2022-11-20T04:22:52;5.05;;;3.63;;
39448;SDS011;25151;45.566;9.382;2022-11-20T04:25:54;4.50;;;3.42;;
39448;SDS011;25151;45.566;9.382;2022-11-20T04:29:01;3.95;;;3.10;;
39448;SDS011;25151;45.566;9.382;2022-11-20T04:32:03;4.30;;;3.75;;
39448;SDS011;25151;45.566;9.382;2022-11-20T04:35:03;3.85;;;3.45;;
39448;SDS011;25151;45.566;9.382;2022-11-20T04:38:04;3.90;;;2.88;;
39448;SDS011;25151;45.566;9.382;2022-11-20T04:41:07;3.85;;;3.10;;
39448;SDS011;25151;45.566;9.382;2022-11-20T04:44:12;3.92;;;3.45;;
39448;SDS011;25151;45.566;9.382;2022-11-20T04:47:13;3.78;;;3.05;;
39448;SDS011;25151;45.566;9.382;2022-11-20T04:50:13;4.07;;;3.38;;
39448;SDS011;25151;45.566;9.382;2022-11-20T04:53:14;4.60;;;3.38;;
39448;SDS011;25151;45.566;9.382;2022-11-20T04:56:15;4.45;;;3.55;;
39448;SDS011;25151;45.566;9.382;2022-11-20T04:59:16;3.72;;;3.33;;
39448;SDS011;25151;45.566;9.382;2022-11-20T05:02:17;3.75;;;3.10;;
39448;SDS011;25151;45.566;9.382;2022-11-20T05:05:18;4.35;;;3.47;;
39448;SDS011;25151;45.566;9.382;2022-11-20T05:08:18;4.15;;;3.22;;
39448;SDS011;25151;45.566;9.382;2022-11-20T05:11:20;4.43;;;3.40;;
39448;SDS011;25151;45.566;9.382;2022-11-20T05:14:21;4.75;;;3.67;;
39448;SDS011;25151;45.566;9.382;2022-11-20T05:17:21;4.05;;;3.25;;
39448;SDS011;25151;45.566;9.382;2022-11-20T05:20:22;4.30;;;3.60;;
39448;SDS011;25151;45.566;9.382;2022-11-20T05:23:23;4.05;;;3.40;;
39448;SDS011;25151;45.566;9.382;2022-11-20T05:26:26;3.65;;;3.35;;
39448;SDS011;25151;45.566;9.382;2022-11-20T05:29:26;3.40;;;2.97;;
39448;SDS011;25151;45.566;9.382;2022-11-20T05:32:27;3.83;;;3.42;;
39448;SDS011;25151;45.566;9.382;2022-11-20T05:35:28;6.10;;;3.10;;
39448;SDS011;25151;45.566;9.382;2022-11-20T05:38:28;3.63;;;3.15;;
39448;SDS011;25151;45.566;9.382;2022-11-20T05:41:29;4.22;;;3.40;;
39448;SDS011;25151;45.566;9.382;2022-11-20T05:44:30;3.92;;;2.83;;
39448;SDS011;25151;45.566;9.382;2022-11-20T05:47:32;4.88;;;3.20;;
39448;SDS011;25151;45.566;9.382;2022-11-20T05:50:34;5.88;;;3.10;;
39448;SDS011;25151;45.566;9.382;2022-11-20T05:53:35;4.53;;;3.20;;
39448;SDS011;25151;45.566;9.382;2022-11-20T05:56:36;3.78;;;3.15;;
39448;SDS011;25151;45.566;9.382;2022-11-20T05:59:37;4.63;;;3.03;;
39448;SDS011;25151;45.566;9.382;2022-11-20T06:02:38;3.42;;;3.05;;
39448;SDS011;25151;45.566;9.382;2022-11-20T06:05:38;5.68;;;3.40;;
39448;SDS011;25151;45.566;9.382;2022-11-20T06:08:39;3.78;;;3.17;;
39448;SDS011;25151;45.566;9.382;2022-11-20T06:11:43;3.97;;;3.20;;
39448;SDS011;25151;45.566;9.382;2022-11-20T06:14:43;3.72;;;3.10;;
39448;SDS011;25151;45.566;9.382;2022-11-20T06:17:44;3.75;;;3.15;;
39448;SDS011;25151;45.566;9.382;2022-11-20T06:20:45;3.20;;;2.80;;
39448;SDS011;25151;45.566;9.382;2022-11-20T06:23:46;3.22;;;2.90;;
39448;SDS011;25151;45.566;9.382;2022-11-20T06:26:47;3.42;;;3.00;;
39448;SDS011;25151;45.566;9.382;2022-11-20T06:29:48;6.38;;;3.20;;
39448;SDS011;25151;45.566;9.382;2022-11-20T06:32:49;4.25;;;3.45;;
39448;SDS011;25151;45.566;9.382;2022-11-20T06:35:50;3.85;;;2.97;;
39448;SDS011;25151;45.566;9.382;2022-11-20T06:38:51;4.28;;;2.88;;
39448;SDS011;25151;45.566;9.382;2022-11-20T06:41:52;4.20;;;3.40;;
39448;SDS011;25151;45.566;9.382;2022-11-20T06:44:53;3.50;;;3.03;;
39448;SDS011;25151;45.566;9.382;2022-11-20T06:47:53;3.50;;;2.60;;
39448;SDS011;25151;45.566;9.382;2022-11-20T06:50:54;5.22;;;3.65;;
39448;SDS011;25151;45.566;9.382;2022-11-20T06:53:56;3.38;;;2.97;;
39448;SDS011;25151;45.566;9.382;2022-11-20T06:56:59;4.22;;;3.10;;
39448;SDS011;25151;45.566;9.382;2022-11-20T07:00:00;5.10;;;3.47;;
39448;SDS011;25151;45.566;9.382;2022-11-20T07:03:04;4.10;;;3.38;;
39448;SDS011;25151;45.566;9.382;2022-11-20T07:06:06;3.53;;;3.00;;
39448;SDS011;25151;45.566;9.382;2022-11-20T07:09:08;3.45;;;2.70;;
39448;SDS011;25151;45.566;9.382;2022-11-20T07:12:08;4.38;;;3.00;;
39448;SDS011;25151;45.566;9.382;2022-11-20T07:15:09;4.10;;;3.17;;
39448;SDS011;25151;45.566;9.382;2022-11-20T07:18:10;6.88;;;2.80;;
39448;SDS011;25151;45.566;9.382;2022-11-20T07:21:11;5.15;;;2.92;;
39448;SDS011;25151;45.566;9.382;2022-11-20T07:24:11;3.97;;;2.88;;
39448;SDS011;25151;45.566;9.382;2022-11-20T07:27:12;3.55;;;2.90;;
39448;SDS011;25151;45.566;9.382;2022-11-20T07:30:13;5.28;;;3.00;;
39448;SDS011;25151;45.566;9.382;2022-11-20T07:33:15;4.22;;;2.90;;
39448;SDS011;25151;45.566;9.382;2022-11-20T07:36:15;5.57;;;2.95;;
39448;SDS011;25151;45.566;9.382;2022-11-20T07:39:19;6.28;;;3.00;;
39448;SDS011;25151;45.566;9.382;2022-11-20T07:42:21;4.10;;;3.22;;
39448;SDS011;25151;45.566;9.382;2022-11-20T07:45:22;5.00;;;3.15;;
39448;SDS011;25151;45.566;9.382;2022-11-20T07:48:24;6.05;;;2.58;;
39448;SDS011;25151;45.566;9.382;2022-11-20T07:51:25;5.00;;;3.08;;
39448;SDS011;25151;45.566;9.382;2022-11-20T07:54:26;4.00;;;3.00;;
39448;SDS011;25151;45.566;9.382;2022-11-20T07:57:27;3.63;;;2.88;;
39448;SDS011;25151;45.566;9.382;2022-11-20T08:00:27;3.63;;;3.00;;
39448;SDS011;25151;45.566;9.382;2022-11-20T08:03:28;4.82;;;2.83;;
39448;SDS011;25151;45.566;9.382;2022-11-20T08:06:29;5.07;;;2.88;;
39448;SDS011;25151;45.566;9.382;2022-11-20T08:09:29;3.67;;;2.70;;
39448;SDS011;25151;45.566;9.382;2022-11-20T08:12:30;5.40;;;2.70;;
39448;SDS011;25151;45.566;9.382;2022-11-20T08:16:09;5.80;;;3.20;;
39448;SDS011;25151;45.566;9.382;2022-11-20T08:19:11;5.95;;;3.53;;
39448;SDS011;25151;45.566;9.382;2022-11-20T08:22:15;3.88;;;2.67;;
39448;SDS011;25151;45.566;9.382;2022-11-20T08:25:17;5.45;;;3.00;;
39448;SDS011;25151;45.566;9.382;2022-11-20T08:28:18;5.88;;;2.95;;
39448;SDS011;25151;45.566;9.382;2022-11-20T08:31:19;4.15;;;2.75;;
39448;SDS011;25151;45.566;9.382;2022-11-20T08:34:20;9.23;;;3.00;;
39448;SDS011;25151;45.566;9.382;2022-11-20T08:37:20;6.30;;;2.78;;
39448;SDS011;25151;45.566;9.382;2022-11-20T08:40:21;4.65;;;3.00;;
39448;SDS011;25151;45.566;9.382;2022-11-20T08:43:22;4.13;;;3.38;;
39448;SDS011;25151;45.566;9.382;2022-11-20T08:46:26;3.78;;;2.95;;
39448;SDS011;25151;45.566;9.382;2022-11-20T08:49:28;5.15;;;3.05;;
39448;SDS011;25151;45.566;9.382;2022-11-20T08:52:28;7.13;;;3.03;;
39448;SDS011;25151;45.566;9.382;2022-11-20T08:55:29;5.85;;;3.33;;
39448;SDS011;25151;45.566;9.382;2022-11-20T08:58:35;5.68;;;3.67;;
39448;SDS011;25151;45.566;9.382;2022-11-20T09:01:36;4.30;;;3.03;;
39448;SDS011;25151;45.566;9.382;2022-11-20T09:04:37;6.80;;;3.90;;
39448;SDS011;25151;45.566;9.382;2022-11-20T09:07:38;5.82;;;3.42;;
39448;SDS011;25151;45.566;9.382;2022-11-20T09:10:38;7.95;;;3.72;;
39448;SDS011;25151;45.566;9.382;2022-11-20T09:13:42;6.50;;;3.88;;
39448;SDS011;25151;45.566;9.382;2022-11-20T09:16:44;9.82;;;3.60;;
39448;SDS011;25151;45.566;9.382;2022-11-20T09:19:45;6.72;;;3.50;;
39448;SDS011;25151;45.566;9.382;2022-11-20T09:22:46;7.68;;;3.22;;
39448;SDS011;25151;45.566;9.382;2022-11-20T09:25:47;8.32;;;3.33;;
39448;SDS011;25151;45.566;9.382;2022-11-20T09:28:47;8.63;;;3.67;;
39448;SDS011;25151;45.566;9.382;2022-11-20T09:31:48;11.65;;;4.03;;
39448;SDS011;25151;45.566;9.382;2022-11-20T09:34:49;6.70;;;3.75;;
39448;SDS011;25151;45.566;9.382;2022-11-20T09:37:49;5.80;;;3.22;;
39448;SDS011;25151;45.566;9.382;2022-11-20T09:47:25;5.97;;;3.03;;
39448;SDS011;25151;45.566;9.382;2022-11-20T09:57:17;11.48;;;2.92;;
39448;SDS011;25151;45.566;9.382;2022-11-20T10:00:21;6.85;;;3.00;;
39448;SDS011;25151;45.566;9.382;2022-11-20T10:03:29;5.13;;;2.78;;
39448;SDS011;25151;45.566;9.382;2022-11-20T10:09:55;5.25;;;2.72;;
39448;SDS011;25151;45.566;9.382;2022-11-20T10:19:47;4.40;;;2.67;;
39448;SDS011;25151;45.566;9.382;2022-11-20T10:23:28;4.97;;;2.80;;
39448;SDS011;25151;45.566;9.382;2022-11-20T10:33:21;3.88;;;2.75;;
39448;SDS011;25151;45.566;9.382;2022-11-20T10:36:25;6.32;;;2.55;;
39448;SDS011;25151;45.566;9.382;2022-11-20T10:39:42;4.47;;;2.28;;
39448;SDS011;25151;45.566;9.382;2022-11-20T10:42:47;5.10;;;2.70;;
39448;SDS011;25151;45.566;9.382;2022-11-20T10:45:58;4.50;;;2.47;;
39448;SDS011;25151;45.566;9.382;2022-11-20T10:49:04;6.10;;;2.92;;
39448;SDS011;25151;45.566;9.382;2022-11-20T10:55:42;4.47;;;2.47;;
39448;SDS011;25151;45.566;9.382;2022-11-20T10:59:04;5.40;;;2.58;;
39448;SDS011;25151;45.566;9.382;2022-11-20T11:06:46;3.45;;;2.28;;
39448;SDS011;25151;45.566;9.382;2022-11-20T11:09:32;4.85;;;2.75;;
39448;SDS011;25151;45.566;9.382;2022-11-20T11:12:35;5.25;;;2.60;;
39448;SDS011;25151;45.566;9.382;2022-11-20T11:15:37;6.05;;;2.78;;
39448;SDS011;25151;45.566;9.382;2022-11-20T11:18:40;8.15;;;3.05;;
39448;SDS011;25151;45.566;9.382;2022-11-20T11:21:49;4.68;;;3.10;;
39448;SDS011;25151;45.566;9.382;2022-11-20T11:24:52;3.90;;;2.35;;
39448;SDS011;25151;45.566;9.382;2022-11-20T11:27:54;4.07;;;2.90;;
39448;SDS011;25151;45.566;9.382;2022-11-20T11:30:57;4.63;;;2.35;;
39448;SDS011;25151;45.566;9.382;2022-11-20T11:34:08;5.45;;;2.60;;
39448;SDS011;25151;45.566;9.382;2022-11-20T11:37:19;4.35;;;2.40;;
39448;SDS011;25151;45.566;9.382;2022-11-20T11:40:24;4.85;;;2.78;;
39448;SDS011;25151;45.566;9.382;2022-11-20T11:43:31;4.75;;;2.50;;
39448;SDS011;25151;45.566;9.382;2022-11-20T11:46:53;4.63;;;2.30;;
39448;SDS011;25151;45.566;9.382;2022-11-20T11:50:07;4.78;;;2.53;;
39448;SDS011;25151;45.566;9.382;2022-11-20T11:53:23;3.22;;;2.50;;
39448;SDS011;25151;45.566;9.382;2022-11-20T11:56:27;4.50;;;2.33;;
39448;SDS011;25151;45.566;9.382;2022-11-20T11:59:33;4.50;;;2.30;;
39448;SDS011;25151;45.566;9.382;2022-11-20T12:06:16;7.18;;;2.75;;
39448;SDS011;25151;45.566;9.382;2022-11-20T12:09:17;4.28;;;2.50;;
39448;SDS011;25151;45.566;9.382;2022-11-20T12:12:22;4.28;;;2.85;;
39448;SDS011;25151;45.566;9.382;2022-11-20T12:15:31;4.90;;;2.20;;
39448;SDS011;25151;45.566;9.382;2022-11-20T12:18:34;4.75;;;2.45;;
39448;SDS011;25151;45.566;9.382;2022-11-20T12:21:47;4.82;;;2.30;;
39448;SDS011;25151;45.566;9.382;2022-11-20T12:25:24;3.78;;;2.58;;
39448;SDS011;25151;45.566;9.382;2022-11-20T12:28:34;3.83;;;2.45;;
39448;SDS011;25151;45.566;9.382;2022-11-20T12:32:03;5.47;;;2.47;;
39448;SDS011;25151;45.566;9.382;2022-11-20T12:39:02;4.20;;;2.72;;
39448;SDS011;25151;45.566;9.382;2022-11-20T13:09:08;5.15;;;2.47;;
39448;SDS011;25151;45.566;9.382;2022-11-20T13:18:56;4.18;;;2.75;;
39448;SDS011;25151;45.566;9.382;2022-11-20T13:22:03;5.00;;;2.33;;
39448;SDS011;25151;45.566;9.382;2022-11-20T13:25:08;5.05;;;2.72;;
39448;SDS011;25151;45.566;9.382;2022-11-20T13:31:23;4.45;;;2.83;;
39448;SDS011;25151;45.566;9.382;2022-11-20T13:34:30;4.70;;;2.57;;
39448;SDS011;25151;45.566;9.382;2022-11-20T13:37:35;4.93;;;2.55;;
39448;SDS011;25151;45.566;9.382;2022-11-20T13:40:38;5.57;;;2.30;;
39448;SDS011;25151;45.566;9.382;2022-11-20T13:43:51;6.18;;;2.83;;
39448;SDS011;25151;45.566;9.382;2022-11-20T13:46:52;6.00;;;2.63;;
39448;SDS011;25151;45.566;9.382;2022-11-20T13:49:54;6.35;;;2.50;;
39448;SDS011;25151;45.566;9.382;2022-11-20T14:03:34;4.40;;;2.15;;
39448;SDS011;25151;45.566;9.382;2022-11-20T14:06:31;3.55;;;2.55;;
39448;SDS011;25151;45.566;9.382;2022-11-20T14:09:34;6.20;;;2.58;;
39448;SDS011;25151;45.566;9.382;2022-11-20T14:12:35;3.90;;;2.28;;
39448;SDS011;25151;45.566;9.382;2022-11-20T14:15:36;2.88;;;2.00;;
39448;SDS011;25151;45.566;9.382;2022-11-20T14:18:40;6.63;;;2.20;;
39448;SDS011;25151;45.566;9.382;2022-11-20T14:21:41;5.18;;;2.63;;
39448;SDS011;25151;45.566;9.382;2022-11-20T14:24:41;4.20;;;2.38;;
39448;SDS011;25151;45.566;9.382;2022-11-20T14:27:43;2.88;;;1.95;;
39448;SDS011;25151;45.566;9.382;2022-11-20T14:30:47;4.07;;;2.38;;
39448;SDS011;25151;45.566;9.382;2022-11-20T14:33:49;4.32;;;2.45;;
39448;SDS011;25151;45.566;9.382;2022-11-20T14:37:00;3.00;;;2.08;;
39448;SDS011;25151;45.566;9.382;2022-11-20T14:40:28;4.32;;;2.20;;
39448;SDS011;25151;45.566;9.382;2022-11-20T14:46:38;4.32;;;2.00;;
39448;SDS011;25151;45.566;9.382;2022-11-20T14:49:38;3.85;;;2.40;;
39448;SDS011;25151;45.566;9.382;2022-11-20T14:52:49;2.83;;;2.10;;
39448;SDS011;25151;45.566;9.382;2022-11-20T14:55:58;4.57;;;2.30;;
39448;SDS011;25151;45.566;9.382;2022-11-20T14:59:00;3.97;;;2.40;;
39448;SDS011;25151;45.566;9.382;2022-11-20T15:02:05;2.88;;;2.08;;
39448;SDS011;25151;45.566;9.382;2022-11-20T15:05:09;3.55;;;2.10;;
39448;SDS011;25151;45.566;9.382;2022-11-20T15:08:10;3.80;;;2.72;;
39448;SDS011;25151;45.566;9.382;2022-11-20T15:11:18;3.28;;;2.33;;
39448;SDS011;25151;45.566;9.382;2022-11-20T15:14:21;2.88;;;2.20;;
39448;SDS011;25151;45.566;9.382;2022-11-20T15:17:22;2.83;;;2.25;;
39448;SDS011;25151;45.566;9.382;2022-11-20T15:20:24;2.67;;;2.00;;
39448;SDS011;25151;45.566;9.382;2022-11-20T15:23:28;4.20;;;2.30;;
39448;SDS011;25151;45.566;9.382;2022-11-20T15:26:29;6.93;;;3.03;;
39448;SDS011;25151;45.566;9.382;2022-11-20T15:29:31;3.75;;;2.38;;
39448;SDS011;25151;45.566;9.382;2022-11-20T15:32:32;3.53;;;1.98;;
39448;SDS011;25151;45.566;9.382;2022-11-20T15:35:33;3.15;;;2.00;;
39448;SDS011;25151;45.566;9.382;2022-11-20T15:38:33;3.75;;;2.05;;
39448;SDS011;25151;45.566;9.382;2022-11-20T15:41:35;3.00;;;2.10;;
39448;SDS011;25151;45.566;9.382;2022-11-20T15:44:36;2.75;;;1.83;;
39448;SDS011;25151;45.566;9.382;2022-11-20T15:47:37;3.08;;;2.10;;
39448;SDS011;25151;45.566;9.382;2022-11-20T15:50:47;3.95;;;2.05;;
39448;SDS011;25151;45.566;9.382;2022-11-20T15:53:54;3.90;;;2.20;;
39448;SDS011;25151;45.566;9.382;2022-11-20T15:56:55;3.83;;;2.03;;
39448;SDS011;25151;45.566;9.382;2022-11-20T15:59:55;2.78;;;2.00;;
39448;SDS011;25151;45.566;9.382;2022-11-20T16:02:56;6.47;;;2.35;;
39448;SDS011;25151;45.566;9.382;2022-11-20T16:05:57;3.67;;;1.92;;
39448;SDS011;25151;45.566;9.382;2022-11-20T16:08:57;3.25;;;2.30;;
39448;SDS011;25151;45.566;9.382;2022-11-20T16:11:58;4.00;;;2.33;;
39448;SDS011;25151;45.566;9.382;2022-11-20T16:14:59;4.07;;;2.45;;
39448;SDS011;25151;45.566;9.382;2022-11-20T16:18:19;2.92;;;2.13;;
39448;SDS011;25151;45.566;9.382;2022-11-20T16:21:21;4.30;;;2.22;;
39448;SDS011;25151;45.566;9.382;2022-11-20T16:24:27;3.72;;;2.08;;
39448;SDS011;25151;45.566;9.382;2022-11-20T16:27:28;2.72;;;1.90;;
39448;SDS011;25151;45.566;9.382;2022-11-20T16:30:30;3.97;;;2.45;;
39448;SDS011;25151;45.566;9.382;2022-11-20T16:33:32;2.80;;;2.28;;
39448;SDS011;25151;45.566;9.382;2022-11-20T16:36:33;3.38;;;2.28;;
39448;SDS011;25151;45.566;9.382;2022-11-20T16:39:34;3.55;;;2.30;;
39448;SDS011;25151;45.566;9.382;2022-11-20T16:42:35;5.13;;;2.10;;
39448;SDS011;25151;45.566;9.382;2022-11-20T16:45:40;3.03;;;2.30;;
39448;SDS011;25151;45.566;9.382;2022-11-20T16:48:42;3.22;;;2.15;;
39448;SDS011;25151;45.566;9.382;2022-11-20T16:51:43;2.38;;;2.08;;
39448;SDS011;25151;45.566;9.382;2022-11-20T16:54:44;3.47;;;2.30;;
39448;SDS011;25151;45.566;9.382;2022-11-20T16:57:44;3.10;;;2.00;;
39448;SDS011;25151;45.566;9.382;2022-11-20T17:00:45;3.47;;;2.28;;
39448;SDS011;25151;45.566;9.382;2022-11-20T17:03:46;3.00;;;1.85;;
39448;SDS011;25151;45.566;9.382;2022-11-20T17:06:54;3.85;;;2.25;;
39448;SDS011;25151;45.566;9.382;2022-11-20T17:09:54;5.05;;;2.20;;
39448;SDS011;25151;45.566;9.382;2022-11-20T17:12:56;2.65;;;1.80;;
39448;SDS011;25151;45.566;9.382;2022-11-20T17:16:04;3.10;;;1.83;;
39448;SDS011;25151;45.566;9.382;2022-11-20T17:19:12;2.67;;;1.95;;
39448;SDS011;25151;45.566;9.382;2022-11-20T17:22:14;3.15;;;2.10;;
39448;SDS011;25151;45.566;9.382;2022-11-20T17:25:16;2.97;;;2.20;;
39448;SDS011;25151;45.566;9.382;2022-11-20T17:28:17;2.85;;;1.95;;
39448;SDS011;25151;45.566;9.382;2022-11-20T17:31:18;2.60;;;2.40;;
39448;SDS011;25151;45.566;9.382;2022-11-20T17:34:18;3.20;;;2.25;;
39448;SDS011;25151;45.566;9.382;2022-11-20T17:37:19;2.45;;;2.13;;
39448;SDS011;25151;45.566;9.382;2022-11-20T17:40:20;3.83;;;2.10;;
39448;SDS011;25151;45.566;9.382;2022-11-20T17:43:20;2.85;;;1.92;;
39448;SDS011;25151;45.566;9.382;2022-11-20T17:46:22;2.80;;;1.98;;
39448;SDS011;25151;45.566;9.382;2022-11-20T17:49:27;2.47;;;1.98;;
39448;SDS011;25151;45.566;9.382;2022-11-20T17:52:31;3.67;;;1.90;;
39448;SDS011;25151;45.566;9.382;2022-11-20T17:55:31;3.60;;;1.95;;
39448;SDS011;25151;45.566;9.382;2022-11-20T17:58:52;3.10;;;2.10;;
39448;SDS011;25151;45.566;9.382;2022-11-20T18:01:53;3.70;;;2.30;;
39448;SDS011;25151;45.566;9.382;2022-11-20T18:04:54;3.35;;;2.00;;
39448;SDS011;25151;45.566;9.382;2022-11-20T18:07:55;2.53;;;2.10;;
39448;SDS011;25151;45.566;9.382;2022-11-20T18:10:56;3.22;;;2.42;;
39448;SDS011;25151;45.566;9.382;2022-11-20T18:13:57;2.55;;;2.10;;
39448;SDS011;25151;45.566;9.382;2022-11-20T18:17:17;3.38;;;2.05;;
39448;SDS011;25151;45.566;9.382;2022-11-20T18:20:18;4.03;;;2.22;;
39448;SDS011;25151;45.566;9.382;2022-11-20T18:23:19;3.28;;;2.40;;
39448;SDS011;25151;45.566;9.382;2022-11-20T18:26:20;2.50;;;1.60;;
39448;SDS011;25151;45.566;9.382;2022-11-20T18:29:20;4.15;;;2.50;;
39448;SDS011;25151;45.566;9.382;2022-11-20T18:32:21;3.33;;;2.25;;
39448;SDS011;25151;45.566;9.382;2022-11-20T18:35:22;5.43;;;2.55;;
39448;SDS011;25151;45.566;9.382;2022-11-20T18:38:26;3.75;;;2.25;;
39448;SDS011;25151;45.566;9.382;2022-11-20T18:41:27;3.17;;;2.30;;
39448;SDS011;25151;45.566;9.382;2022-11-20T18:47:51;4.53;;;2.75;;
39448;SDS011;25151;45.566;9.382;2022-11-20T18:50:51;4.13;;;2.78;;
39448;SDS011;25151;45.566;9.382;2022-11-20T18:53:53;3.38;;;2.65;;
39448;SDS011;25151;45.566;9.382;2022-11-20T18:56:54;6.20;;;3.00;;
39448;SDS011;25151;45.566;9.382;2022-11-20T18:59:54;3.08;;;2.60;;
39448;SDS011;25151;45.566;9.382;2022-11-20T19:02:59;3.00;;;2.60;;
39448;SDS011;25151;45.566;9.382;2022-11-20T19:05:59;5.53;;;2.80;;
39448;SDS011;25151;45.566;9.382;2022-11-20T19:09:01;4.55;;;2.63;;
39448;SDS011;25151;45.566;9.382;2022-11-20T19:12:04;4.20;;;2.72;;
39448;SDS011;25151;45.566;9.382;2022-11-20T19:15:05;4.65;;;3.10;;
39448;SDS011;25151;45.566;9.382;2022-11-20T19:18:06;3.75;;;2.83;;
39448;SDS011;25151;45.566;9.382;2022-11-20T19:21:08;3.50;;;2.97;;
39448;SDS011;25151;45.566;9.382;2022-11-20T19:24:10;4.50;;;3.13;;
39448;SDS011;25151;45.566;9.382;2022-11-20T19:27:10;6.32;;;3.08;;
39448;SDS011;25151;45.566;9.382;2022-11-20T19:30:11;2.72;;;2.40;;
39448;SDS011;25151;45.566;9.382;2022-11-20T19:33:12;3.55;;;2.90;;
39448;SDS011;25151;45.566;9.382;2022-11-20T19:36:17;4.75;;;2.90;;
39448;SDS011;25151;45.566;9.382;2022-11-20T19:39:20;4.22;;;3.13;;
39448;SDS011;25151;45.566;9.382;2022-11-20T19:42:20;6.32;;;2.90;;
39448;SDS011;25151;45.566;9.382;2022-11-20T19:45:21;6.15;;;3.00;;
39448;SDS011;25151;45.566;9.382;2022-11-20T19:48:23;3.85;;;2.60;;
39448;SDS011;25151;45.566;9.382;2022-11-20T19:51:31;4.35;;;2.97;;
39448;SDS011;25151;45.566;9.382;2022-11-20T19:54:34;3.50;;;2.60;;
39448;SDS011;25151;45.566;9.382;2022-11-20T19:57:35;2.67;;;2.38;;
39448;SDS011;25151;45.566;9.382;2022-11-20T20:00:38;4.15;;;2.88;;
39448;SDS011;25151;45.566;9.382;2022-11-20T20:03:39;3.70;;;2.45;;
39448;SDS011;25151;45.566;9.382;2022-11-20T20:06:41;3.50;;;2.42;;